sensor_id;sensor_type;location;lat;lon;timestamp;pressure;altitude;pressure_sealevel;temperature;humidity
21109;BME280;10712;52.944;9.098;2022-07-29T00:00:53;101827.94;;;22.34;43.45
21109;BME280;10712;52.944;9.098;2022-07-29T00:03:19;101837.41;;;22.39;43.25
21109;BME280;10712;52.944;9.098;2022-07-29T00:05:45;101828.41;;;22.39;43.45
21109;BME280;10712;52.944;9.098;2022-07-29T00:08:11;101843.25;;;22.45;43.52
21109;BME280;10712;52.944;9.098;2022-07-29T00:10:37;101839.44;;;22.47;43.29
21109;BME280;10712;52.944;9.098;2022-07-29T00:13:03;101833.69;;;22.50;43.14
21109;BME280;10712;52.944;9.098;2022-07-29T00:15:29;101830.84;;;22.52;43.32
21109;BME280;10712;52.944;9.098;2022-07-29T00:17:54;101826.97;;;22.54;42.89
21109;BME280;10712;52.944;9.098;2022-07-29T00:20:20;101827.13;;;22.53;43.09
21109;BME280;10712;52.944;9.098;2022-07-29T00:22:46;101822.56;;;22.53;42.97
21109;BME280;10712;52.944;9.098;2022-07-29T00:25:13;101804.53;;;22.52;42.74
21109;BME280;10712;52.944;9.098;2022-07-29T00:27:39;101810.25;;;22.49;42.92
21109;BME280;10712;52.944;9.098;2022-07-29T00:30:06;101816.41;;;22.51;42.77
21109;BME280;10712;52.944;9.098;2022-07-29T00:32:32;101809.69;;;22.55;43.16
21109;BME280;10712;52.944;9.098;2022-07-29T00:34:58;101799.38;;;22.49;42.82
21109;BME280;10712;52.944;9.098;2022-07-29T00:37:42;101798.53;;;22.39;43.18
21109;BME280;10712;52.944;9.098;2022-07-29T00:40:09;101795.34;;;22.34;43.19
21109;BME280;10712;52.944;9.098;2022-07-29T00:42:48;101793.91;;;22.30;43.35
21109;BME280;10712;52.944;9.098;2022-07-29T00:45:15;101786.22;;;22.25;43.13
21109;BME280;10712;52.944;9.098;2022-07-29T00:47:42;101789.31;;;22.21;43.18
21109;BME280;10712;52.944;9.098;2022-07-29T00:50:10;101790.16;;;22.12;43.41
21109;BME280;10712;52.944;9.098;2022-07-29T00:52:40;101789.00;;;22.05;43.75
21109;BME280;10712;52.944;9.098;2022-07-29T00:55:11;101780.69;;;22.06;44.02
21109;BME280;10712;52.944;9.098;2022-07-29T00:57:38;101782.84;;;22.03;43.69
21109;BME280;10712;52.944;9.098;2022-07-29T01:00:09;101781.78;;;21.94;43.92
21109;BME280;10712;52.944;9.098;2022-07-29T01:02:35;101772.56;;;21.96;44.39
21109;BME280;10712;52.944;9.098;2022-07-29T01:05:04;101775.50;;;21.93;44.08
21109;BME280;10712;52.944;9.098;2022-07-29T01:07:32;101773.78;;;21.92;44.28
21109;BME280;10712;52.944;9.098;2022-07-29T01:09:59;101773.78;;;21.92;44.12
21109;BME280;10712;52.944;9.098;2022-07-29T01:12:28;101770.75;;;21.86;44.39
21109;BME280;10712;52.944;9.098;2022-07-29T01:14:59;101763.22;;;21.89;44.58
21109;BME280;10712;52.944;9.098;2022-07-29T01:17:35;101767.50;;;21.92;44.40
21109;BME280;10712;52.944;9.098;2022-07-29T01:25:38;101758.22;;;21.94;44.21
21109;BME280;10712;52.944;9.098;2022-07-29T01:31:20;101751.81;;;21.95;44.18
21109;BME280;10712;52.944;9.098;2022-07-29T01:33:58;101749.84;;;21.97;44.31
21109;BME280;10712;52.944;9.098;2022-07-29T01:36:32;101740.50;;;21.90;44.58
21109;BME280;10712;52.944;9.098;2022-07-29T01:39:31;101739.22;;;21.85;44.45
21109;BME280;10712;52.944;9.098;2022-07-29T01:42:26;101732.94;;;21.84;44.45
21109;BME280;10712;52.944;9.098;2022-07-29T01:45:10;101729.53;;;21.92;44.21
21109;BME280;10712;52.944;9.098;2022-07-29T01:47:44;101737.50;;;21.93;44.36
21109;BME280;10712;52.944;9.098;2022-07-29T01:50:16;101729.00;;;21.98;44.21
21109;BME280;10712;52.944;9.098;2022-07-29T01:52:54;101731.56;;;21.99;44.10
21109;BME280;10712;52.944;9.098;2022-07-29T01:55:29;101727.84;;;22.00;44.30
21109;BME280;10712;52.944;9.098;2022-07-29T01:57:58;101720.44;;;22.03;44.28
21109;BME280;10712;52.944;9.098;2022-07-29T02:00:26;101724.88;;;22.04;43.99
21109;BME280;10712;52.944;9.098;2022-07-29T02:02:54;101720.44;;;22.03;44.07
21109;BME280;10712;52.944;9.098;2022-07-29T02:05:22;101719.13;;;22.07;44.29
21109;BME280;10712;52.944;9.098;2022-07-29T02:07:50;101716.16;;;22.10;44.12
21109;BME280;10712;52.944;9.098;2022-07-29T02:10:22;101710.72;;;22.10;44.09
21109;BME280;10712;52.944;9.098;2022-07-29T02:12:50;101702.72;;;22.08;44.03
21109;BME280;10712;52.944;9.098;2022-07-29T02:15:18;101699.88;;;22.10;44.20
21109;BME280;10712;52.944;9.098;2022-07-29T02:17:59;101696.44;;;22.08;44.41
21109;BME280;10712;52.944;9.098;2022-07-29T02:20:27;101704.44;;;22.09;44.25
21109;BME280;10712;52.944;9.098;2022-07-29T02:22:57;101695.28;;;22.00;44.30
21109;BME280;10712;52.944;9.098;2022-07-29T02:25:24;101692.56;;;22.00;44.43
21109;BME280;10712;52.944;9.098;2022-07-29T02:27:53;101697.00;;;22.02;44.19
21109;BME280;10712;52.944;9.098;2022-07-29T02:30:21;101694.16;;;22.03;44.12
21109;BME280;10712;52.944;9.098;2022-07-29T02:32:49;101694.44;;;22.10;44.17
21109;BME280;10712;52.944;9.098;2022-07-29T02:35:16;101688.16;;;22.09;43.97
21109;BME280;10712;52.944;9.098;2022-07-29T02:37:45;101690.19;;;22.17;44.11
21109;BME280;10712;52.944;9.098;2022-07-29T02:40:34;101691.03;;;22.17;44.17
21109;BME280;10712;52.944;9.098;2022-07-29T02:43:05;101697.88;;;22.21;44.05
21109;BME280;10712;52.944;9.098;2022-07-29T02:45:32;101697.47;;;22.26;43.94
21109;BME280;10712;52.944;9.098;2022-07-29T02:48:05;101692.75;;;22.28;43.83
21109;BME280;10712;52.944;9.098;2022-07-29T02:50:41;101698.16;;;22.28;43.83
21109;BME280;10712;52.944;9.098;2022-07-29T02:53:20;101704.47;;;22.28;43.85
21109;BME280;10712;52.944;9.098;2022-07-29T02:56:04;101705.47;;;22.18;43.74
21109;BME280;10712;52.944;9.098;2022-07-29T02:58:38;101706.47;;;22.36;43.47
21109;BME280;10712;52.944;9.098;2022-07-29T03:01:16;101699.03;;;22.38;43.56
21109;BME280;10712;52.944;9.098;2022-07-29T03:03:47;101718.06;;;22.38;43.47
21109;BME280;10712;52.944;9.098;2022-07-29T03:06:17;101701.06;;;22.46;43.17
21109;BME280;10712;52.944;9.098;2022-07-29T03:08:45;101703.63;;;22.47;43.23
21109;BME280;10712;52.944;9.098;2022-07-29T03:11:13;101702.06;;;22.45;43.47
21109;BME280;10712;52.944;9.098;2022-07-29T03:13:40;101700.19;;;22.45;43.32
21109;BME280;10712;52.944;9.098;2022-07-29T03:16:08;101703.03;;;22.44;43.26
21109;BME280;10712;52.944;9.098;2022-07-29T03:18:36;101705.34;;;22.38;43.54
21109;BME280;10712;52.944;9.098;2022-07-29T03:21:03;101703.75;;;22.36;43.23
21109;BME280;10712;52.944;9.098;2022-07-29T03:23:29;101702.34;;;22.32;43.87
21109;BME280;10712;52.944;9.098;2022-07-29T03:25:56;101696.63;;;22.25;43.89
21109;BME280;10712;52.944;9.098;2022-07-29T03:28:22;101696.75;;;22.24;44.12
21109;BME280;10712;52.944;9.098;2022-07-29T03:30:49;101691.31;;;22.24;43.83
21109;BME280;10712;52.944;9.098;2022-07-29T03:33:17;101688.75;;;22.22;44.04
21109;BME280;10712;52.944;9.098;2022-07-29T03:35:43;101693.75;;;22.27;43.93
21109;BME280;10712;52.944;9.098;2022-07-29T03:38:09;101705.06;;;22.32;44.18
21109;BME280;10712;52.944;9.098;2022-07-29T03:40:42;101710.19;;;22.35;43.68
21109;BME280;10712;52.944;9.098;2022-07-29T03:43:12;101704.47;;;22.38;43.62
21109;BME280;10712;52.944;9.098;2022-07-29T03:45:44;101706.47;;;22.36;43.88
21109;BME280;10712;52.944;9.098;2022-07-29T03:48:16;101703.03;;;22.34;43.81
21109;BME280;10712;52.944;9.098;2022-07-29T03:50:44;101698.75;;;22.31;43.80
21109;BME280;10712;52.944;9.098;2022-07-29T03:53:10;101701.06;;;22.26;43.88
21109;BME280;10712;52.944;9.098;2022-07-29T03:55:43;101702.19;;;22.24;44.26
21109;BME280;10712;52.944;9.098;2022-07-29T03:58:12;101700.19;;;22.26;43.95
21109;BME280;10712;52.944;9.098;2022-07-29T04:00:40;101700.47;;;22.23;44.09
21109;BME280;10712;52.944;9.098;2022-07-29T04:03:06;101699.34;;;22.25;43.90
21109;BME280;10712;52.944;9.098;2022-07-29T04:05:32;101698.75;;;22.22;44.09
21109;BME280;10712;52.944;9.098;2022-07-29T04:07:58;101699.03;;;22.19;44.37
21109;BME280;10712;52.944;9.098;2022-07-29T04:10:24;101695.31;;;22.20;44.02
21109;BME280;10712;52.944;9.098;2022-07-29T04:12:50;101694.59;;;22.18;43.96
21109;BME280;10712;52.944;9.098;2022-07-29T04:15:16;101694.75;;;22.16;44.08
21109;BME280;10712;52.944;9.098;2022-07-29T04:17:42;101691.88;;;22.18;44.33
21109;BME280;10712;52.944;9.098;2022-07-29T04:20:09;101691.88;;;22.18;44.11
21109;BME280;10712;52.944;9.098;2022-07-29T04:22:35;101690.75;;;22.11;44.64
21109;BME280;10712;52.944;9.098;2022-07-29T04:25:01;101694.19;;;22.13;44.52
21109;BME280;10712;52.944;9.098;2022-07-29T04:27:27;101700.59;;;22.12;44.58
21109;BME280;10712;52.944;9.098;2022-07-29T04:29:52;101702.03;;;22.16;44.55
21109;BME280;10712;52.944;9.098;2022-07-29T04:32:18;101701.03;;;22.17;44.21
21109;BME280;10712;52.944;9.098;2022-07-29T04:34:44;101704.59;;;22.17;44.24
21109;BME280;10712;52.944;9.098;2022-07-29T04:37:12;101693.88;;;22.16;44.52
21109;BME280;10712;52.944;9.098;2022-07-29T04:39:38;101696.44;;;21.98;44.96
21109;BME280;10712;52.944;9.098;2022-07-29T04:42:04;101700.16;;;22.07;44.92
21109;BME280;10712;52.944;9.098;2022-07-29T04:44:30;101700.75;;;22.10;44.70
21109;BME280;10712;52.944;9.098;2022-07-29T04:46:57;101701.00;;;21.97;45.09
21109;BME280;10712;52.944;9.098;2022-07-29T04:49:23;101704.75;;;22.16;44.89
21109;BME280;10712;52.944;9.098;2022-07-29T04:51:48;101704.47;;;22.19;44.97
21109;BME280;10712;52.944;9.098;2022-07-29T04:54:14;101707.59;;;22.24;44.77
21109;BME280;10712;52.944;9.098;2022-07-29T04:56:40;101702.03;;;22.25;45.05
21109;BME280;10712;52.944;9.098;2022-07-29T04:59:07;101706.47;;;22.26;44.88
21109;BME280;10712;52.944;9.098;2022-07-29T05:01:33;101696.44;;;22.27;45.03
21109;BME280;10712;52.944;9.098;2022-07-29T05:03:58;101700.75;;;22.29;44.80
21109;BME280;10712;52.944;9.098;2022-07-29T05:06:24;101703.03;;;22.34;44.76
21109;BME280;10712;52.944;9.098;2022-07-29T05:08:50;101708.91;;;22.39;44.62
21109;BME280;10712;52.944;9.098;2022-07-29T05:11:16;101701.31;;;22.43;44.66
21109;BME280;10712;52.944;9.098;2022-07-29T05:13:42;101698.47;;;22.44;45.12
21109;BME280;10712;52.944;9.098;2022-07-29T05:16:08;101695.31;;;22.49;45.06
21109;BME280;10712;52.944;9.098;2022-07-29T05:18:34;101701.34;;;22.52;44.74
21109;BME280;10712;52.944;9.098;2022-07-29T05:21:00;101699.31;;;22.54;44.87
21109;BME280;10712;52.944;9.098;2022-07-29T05:23:26;101701.63;;;22.59;44.62
21109;BME280;10712;52.944;9.098;2022-07-29T05:25:52;101705.59;;;22.64;44.83
21109;BME280;10712;52.944;9.098;2022-07-29T05:28:17;101697.88;;;22.69;44.99
21109;BME280;10712;52.944;9.098;2022-07-29T05:30:43;101697.59;;;22.72;44.45
21109;BME280;10712;52.944;9.098;2022-07-29T05:33:10;101699.78;;;22.78;44.45
21109;BME280;10712;52.944;9.098;2022-07-29T05:35:36;101702.03;;;22.83;44.52
21109;BME280;10712;52.944;9.098;2022-07-29T05:38:03;101705.34;;;22.87;44.26
21109;BME280;10712;52.944;9.098;2022-07-29T05:40:29;101713.63;;;22.95;44.45
21109;BME280;10712;52.944;9.098;2022-07-29T05:42:55;101695.59;;;22.94;44.34
21109;BME280;10712;52.944;9.098;2022-07-29T05:45:21;101688.13;;;22.96;44.79
21109;BME280;10712;52.944;9.098;2022-07-29T05:47:48;101695.00;;;23.00;44.80
21109;BME280;10712;52.944;9.098;2022-07-29T05:50:14;101698.13;;;23.05;44.65
21109;BME280;10712;52.944;9.098;2022-07-29T05:52:40;101697.84;;;23.08;44.14
21109;BME280;10712;52.944;9.098;2022-07-29T05:55:06;101709.84;;;23.15;44.36
21109;BME280;10712;52.944;9.098;2022-07-29T05:57:32;101703.97;;;23.20;43.92
21109;BME280;10712;52.944;9.098;2022-07-29T05:59:58;101694.66;;;23.22;43.93
21109;BME280;10712;52.944;9.098;2022-07-29T06:02:24;101697.78;;;23.27;44.04
21109;BME280;10712;52.944;9.098;2022-07-29T06:04:50;101698.66;;;23.28;43.87
21109;BME280;10712;52.944;9.098;2022-07-29T06:07:16;101695.47;;;23.32;43.70
21109;BME280;10712;52.944;9.098;2022-07-29T06:09:42;101689.75;;;23.35;43.96
21109;BME280;10712;52.944;9.098;2022-07-29T06:12:08;101689.91;;;23.34;44.43
21109;BME280;10712;52.944;9.098;2022-07-29T06:14:35;101687.44;;;23.40;44.40
21109;BME280;10712;52.944;9.098;2022-07-29T06:17:01;101691.56;;;23.44;44.36
21109;BME280;10712;52.944;9.098;2022-07-29T06:19:27;101685.13;;;23.45;44.24
21109;BME280;10712;52.944;9.098;2022-07-29T06:21:53;101676.56;;;23.40;44.60
21109;BME280;10712;52.944;9.098;2022-07-29T06:24:19;101683.44;;;23.35;44.79
21109;BME280;10712;52.944;9.098;2022-07-29T06:26:45;101685.13;;;23.45;44.76
21109;BME280;10712;52.944;9.098;2022-07-29T06:29:11;101680.53;;;23.55;44.56
21109;BME280;10712;52.944;9.098;2022-07-29T06:31:39;101682.91;;;23.68;44.16
21109;BME280;10712;52.944;9.098;2022-07-29T06:34:05;101692.03;;;23.77;44.11
21109;BME280;10712;52.944;9.098;2022-07-29T06:36:35;101689.41;;;23.85;43.62
21109;BME280;10712;52.944;9.098;2022-07-29T06:39:05;101683.19;;;23.92;43.81
21109;BME280;10712;52.944;9.098;2022-07-29T06:41:31;101685.69;;;24.04;43.33
21109;BME280;10712;52.944;9.098;2022-07-29T06:44:05;101682.59;;;24.16;43.37
21109;BME280;10712;52.944;9.098;2022-07-29T06:46:31;101670.09;;;24.23;43.39
21109;BME280;10712;52.944;9.098;2022-07-29T06:48:58;101668.53;;;24.39;42.95
21109;BME280;10712;52.944;9.098;2022-07-29T06:51:23;101677.00;;;24.53;42.91
21109;BME280;10712;52.944;9.098;2022-07-29T06:53:51;101671.78;;;24.60;42.80
21109;BME280;10712;52.944;9.098;2022-07-29T06:56:17;101673.16;;;24.64;42.60
21109;BME280;10712;52.944;9.098;2022-07-29T06:58:43;101681.13;;;24.75;42.59
21109;BME280;10712;52.944;9.098;2022-07-29T07:01:09;101678.41;;;24.83;42.49
21109;BME280;10712;52.944;9.098;2022-07-29T07:03:34;101687.56;;;24.74;42.65
21109;BME280;10712;52.944;9.098;2022-07-29T07:06:00;101704.78;;;24.92;42.29
21109;BME280;10712;52.944;9.098;2022-07-29T07:08:26;101711.38;;;25.07;42.35
21109;BME280;10712;52.944;9.098;2022-07-29T07:10:52;101698.47;;;25.18;42.08
21109;BME280;10712;52.944;9.098;2022-07-29T07:13:19;101702.94;;;25.27;41.77
21109;BME280;10712;52.944;9.098;2022-07-29T07:15:46;101705.72;;;25.35;41.35
21109;BME280;10712;52.944;9.098;2022-07-29T07:18:15;101704.03;;;25.34;41.33
21109;BME280;10712;52.944;9.098;2022-07-29T07:20:41;101698.28;;;25.45;40.80
21109;BME280;10712;52.944;9.098;2022-07-29T07:23:07;101694.25;;;25.57;40.70
21109;BME280;10712;52.944;9.098;2022-07-29T07:25:33;101697.69;;;25.59;40.52
21109;BME280;10712;52.944;9.098;2022-07-29T07:27:59;101706.25;;;25.64;40.82
21109;BME280;10712;52.944;9.098;2022-07-29T07:30:25;101699.44;;;25.68;40.54
21109;BME280;10712;52.944;9.098;2022-07-29T07:32:53;101699.78;;;25.73;40.08
21109;BME280;10712;52.944;9.098;2022-07-29T07:35:19;101692.84;;;25.79;40.07
21109;BME280;10712;52.944;9.098;2022-07-29T07:37:46;101684.47;;;25.80;40.11
21109;BME280;10712;52.944;9.098;2022-07-29T07:40:12;101689.25;;;25.86;40.11
21109;BME280;10712;52.944;9.098;2022-07-29T07:42:40;101679.72;;;25.91;39.97
21109;BME280;10712;52.944;9.098;2022-07-29T07:45:07;101683.50;;;25.98;40.08
21109;BME280;10712;52.944;9.098;2022-07-29T07:47:36;101679.41;;;26.02;40.61
21109;BME280;10712;52.944;9.098;2022-07-29T07:50:05;101671.06;;;26.11;40.59
21109;BME280;10712;52.944;9.098;2022-07-29T07:52:31;101670.56;;;26.24;40.42
21109;BME280;10712;52.944;9.098;2022-07-29T07:54:58;101680.19;;;26.36;40.30
21109;BME280;10712;52.944;9.098;2022-07-29T07:57:23;101669.94;;;26.46;39.96
21109;BME280;10712;52.944;9.098;2022-07-29T07:59:49;101675.06;;;26.57;40.05
21109;BME280;10712;52.944;9.098;2022-07-29T08:02:15;101674.75;;;26.69;39.84
21109;BME280;10712;52.944;9.098;2022-07-29T08:04:42;101672.66;;;26.79;39.66
21109;BME280;10712;52.944;9.098;2022-07-29T08:07:08;101676.09;;;26.89;39.37
21109;BME280;10712;52.944;9.098;2022-07-29T08:09:35;101670.97;;;27.02;38.98
21109;BME280;10712;52.944;9.098;2022-07-29T08:12:01;101679.81;;;27.20;38.67
21109;BME280;10712;52.944;9.098;2022-07-29T08:14:30;101677.75;;;27.30;38.26
21109;BME280;10712;52.944;9.098;2022-07-29T08:16:56;101679.22;;;27.41;38.36
21109;BME280;10712;52.944;9.098;2022-07-29T08:19:22;101678.53;;;27.55;38.49
21109;BME280;10712;52.944;9.098;2022-07-29T08:21:48;101674.59;;;27.50;38.61
21109;BME280;10712;52.944;9.098;2022-07-29T08:24:13;101674.03;;;27.62;37.97
21109;BME280;10712;52.944;9.098;2022-07-29T08:26:58;101673.13;;;27.78;37.93
21109;BME280;10712;52.944;9.098;2022-07-29T08:29:24;101675.97;;;27.93;37.50
21109;BME280;10712;52.944;9.098;2022-07-29T08:31:49;101671.88;;;28.19;36.95
21109;BME280;10712;52.944;9.098;2022-07-29T08:34:15;101682.34;;;28.39;36.67
21109;BME280;10712;52.944;9.098;2022-07-29T08:36:41;101668.88;;;28.52;36.47
21109;BME280;10712;52.944;9.098;2022-07-29T08:39:07;101672.22;;;28.62;35.47
21109;BME280;10712;52.944;9.098;2022-07-29T08:41:33;101666.25;;;28.81;34.62
21109;BME280;10712;52.944;9.098;2022-07-29T08:43:59;101666.91;;;28.98;34.47
21109;BME280;10712;52.944;9.098;2022-07-29T08:46:25;101664.28;;;29.05;34.65
21109;BME280;10712;52.944;9.098;2022-07-29T08:48:51;101661.66;;;29.11;34.52
21109;BME280;10712;52.944;9.098;2022-07-29T08:51:21;101660.69;;;29.19;34.79
21109;BME280;10712;52.944;9.098;2022-07-29T08:53:49;101662.41;;;29.20;34.81
21109;BME280;10712;52.944;9.098;2022-07-29T08:56:17;101664.38;;;29.26;34.16
21109;BME280;10712;52.944;9.098;2022-07-29T08:58:46;101662.53;;;29.41;33.41
21109;BME280;10712;52.944;9.098;2022-07-29T09:01:17;101659.50;;;29.51;33.54
21109;BME280;10712;52.944;9.098;2022-07-29T09:03:45;101668.88;;;29.56;33.32
21109;BME280;10712;52.944;9.098;2022-07-29T09:06:17;101664.69;;;29.60;33.81
21109;BME280;10712;52.944;9.098;2022-07-29T09:08:44;101668.00;;;29.70;33.51
21109;BME280;10712;52.944;9.098;2022-07-29T09:11:12;101664.75;;;29.82;33.75
21109;BME280;10712;52.944;9.098;2022-07-29T09:13:39;101664.91;;;29.95;33.50
21109;BME280;10712;52.944;9.098;2022-07-29T09:16:05;101656.56;;;30.03;33.56
21109;BME280;10712;52.944;9.098;2022-07-29T09:18:40;101657.91;;;30.07;33.52
21109;BME280;10712;52.944;9.098;2022-07-29T09:21:11;101663.91;;;30.17;33.16
21109;BME280;10712;52.944;9.098;2022-07-29T09:24:13;101652.97;;;30.24;33.44
21109;BME280;10712;52.944;9.098;2022-07-29T09:26:45;101664.69;;;30.32;33.52
21109;BME280;10712;52.944;9.098;2022-07-29T09:29:18;101656.38;;;30.26;33.39
21109;BME280;10712;52.944;9.098;2022-07-29T09:31:48;101657.75;;;30.36;32.79
21109;BME280;10712;52.944;9.098;2022-07-29T09:34:16;101647.03;;;30.41;32.61
21109;BME280;10712;52.944;9.098;2022-07-29T09:36:51;101654.81;;;30.38;33.20
21109;BME280;10712;52.944;9.098;2022-07-29T09:39:35;101641.25;;;30.36;32.96
21109;BME280;10712;52.944;9.098;2022-07-29T09:42:05;101641.06;;;30.59;32.98
21109;BME280;10712;52.944;9.098;2022-07-29T09:44:46;101638.63;;;30.71;32.42
21109;BME280;10712;52.944;9.098;2022-07-29T09:47:13;101642.44;;;30.70;32.13
21109;BME280;10712;52.944;9.098;2022-07-29T09:49:55;101638.00;;;30.69;31.71
21109;BME280;10712;52.944;9.098;2022-07-29T09:52:25;101634.91;;;30.85;31.18
21109;BME280;10712;52.944;9.098;2022-07-29T09:54:51;101636.72;;;30.99;30.56
21109;BME280;10712;52.944;9.098;2022-07-29T09:57:28;101630.81;;;31.02;30.25
21109;BME280;10712;52.944;9.098;2022-07-29T10:00:14;101619.88;;;31.09;30.58
21109;BME280;10712;52.944;9.098;2022-07-29T10:02:43;101623.72;;;31.14;30.97
21109;BME280;10712;52.944;9.098;2022-07-29T10:05:21;101621.63;;;31.16;30.90
21109;BME280;10712;52.944;9.098;2022-07-29T10:07:49;101618.72;;;31.24;30.49
21109;BME280;10712;52.944;9.098;2022-07-29T10:10:30;101619.53;;;31.18;29.90
21109;BME280;10712;52.944;9.098;2022-07-29T10:15:32;101624.63;;;31.28;29.86
21109;BME280;10712;52.944;9.098;2022-07-29T10:17:59;101614.13;;;31.38;29.90
21109;BME280;10712;52.944;9.098;2022-07-29T10:20:27;101612.44;;;31.44;30.05
21109;BME280;10712;52.944;9.098;2022-07-29T10:22:54;101615.00;;;31.45;30.00
21109;BME280;10712;52.944;9.098;2022-07-29T10:25:21;101615.41;;;31.49;30.05
21109;BME280;10712;52.944;9.098;2022-07-29T10:27:48;101606.94;;;31.50;29.79
21109;BME280;10712;52.944;9.098;2022-07-29T10:30:18;101613.34;;;31.57;30.04
21109;BME280;10712;52.944;9.098;2022-07-29T10:44:09;101613.97;;;31.53;29.23
21109;BME280;10712;52.944;9.098;2022-07-29T10:46:40;101606.63;;;31.60;29.03
21109;BME280;10712;52.944;9.098;2022-07-29T10:49:21;101604.22;;;31.57;29.03
21109;BME280;10712;52.944;9.098;2022-07-29T10:51:57;101597.66;;;31.58;29.71
21109;BME280;10712;52.944;9.098;2022-07-29T10:57:27;101599.63;;;31.64;29.92
21109;BME280;10712;52.944;9.098;2022-07-29T11:05:16;101591.19;;;31.85;29.59
21109;BME280;10712;52.944;9.098;2022-07-29T11:10:39;101596.59;;;32.20;28.56
21109;BME280;10712;52.944;9.098;2022-07-29T11:13:05;101597.44;;;32.33;28.99
21109;BME280;10712;52.944;9.098;2022-07-29T11:15:55;101597.03;;;32.43;29.52
21109;BME280;10712;52.944;9.098;2022-07-29T11:18:21;101595.31;;;32.55;29.78
21109;BME280;10712;52.944;9.098;2022-07-29T11:20:51;101590.22;;;32.65;29.02
21109;BME280;10712;52.944;9.098;2022-07-29T11:23:34;101585.75;;;32.64;28.73
21109;BME280;10712;52.944;9.098;2022-07-29T11:26:18;101584.31;;;32.68;28.39
21109;BME280;10712;52.944;9.098;2022-07-29T11:28:57;101581.75;;;32.73;28.41
21109;BME280;10712;52.944;9.098;2022-07-29T11:31:43;101574.53;;;32.72;27.67
21109;BME280;10712;52.944;9.098;2022-07-29T11:34:30;101576.19;;;32.87;26.40
21109;BME280;10712;52.944;9.098;2022-07-29T11:42:36;101580.47;;;32.76;26.50
21109;BME280;10712;52.944;9.098;2022-07-29T11:45:10;101586.00;;;32.76;26.38
21109;BME280;10712;52.944;9.098;2022-07-29T11:50:15;101571.13;;;32.83;25.82
21109;BME280;10712;52.944;9.098;2022-07-29T11:52:48;101572.38;;;32.88;26.16
21109;BME280;10712;52.944;9.098;2022-07-29T11:55:20;101573.63;;;32.92;26.35
21109;BME280;10712;52.944;9.098;2022-07-29T11:57:58;101569.41;;;32.89;26.49
21109;BME280;10712;52.944;9.098;2022-07-29T12:00:37;101572.78;;;32.98;26.28
21109;BME280;10712;52.944;9.098;2022-07-29T12:03:07;101567.22;;;33.11;26.65
21109;BME280;10712;52.944;9.098;2022-07-29T12:05:38;101564.44;;;33.17;26.14
21109;BME280;10712;52.944;9.098;2022-07-29T12:08:18;101557.47;;;33.02;26.79
21109;BME280;10712;52.944;9.098;2022-07-29T12:10:47;101562.53;;;33.18;26.29
21109;BME280;10712;52.944;9.098;2022-07-29T12:13:16;101559.09;;;33.29;26.19
21109;BME280;10712;52.944;9.098;2022-07-29T12:15:52;101559.72;;;33.31;26.14
21109;BME280;10712;52.944;9.098;2022-07-29T12:18:19;101564.63;;;33.29;26.46
21109;BME280;10712;52.944;9.098;2022-07-29T12:20:47;101557.78;;;33.38;26.50
21109;BME280;10712;52.944;9.098;2022-07-29T12:23:14;101552.19;;;33.51;26.61
21109;BME280;10712;52.944;9.098;2022-07-29T12:25:43;101548.16;;;33.47;26.69
21109;BME280;10712;52.944;9.098;2022-07-29T12:28:14;101559.50;;;33.39;26.13
21109;BME280;10712;52.944;9.098;2022-07-29T12:30:49;101550.00;;;33.67;26.29
21109;BME280;10712;52.944;9.098;2022-07-29T12:33:23;101545.97;;;33.62;26.19
21109;BME280;10712;52.944;9.098;2022-07-29T12:35:56;101550.09;;;33.40;26.18
21109;BME280;10712;52.944;9.098;2022-07-29T12:38:23;101543.66;;;33.59;26.31
21109;BME280;10712;52.944;9.098;2022-07-29T12:40:52;101543.63;;;33.66;26.69
21109;BME280;10712;52.944;9.098;2022-07-29T12:43:21;101547.06;;;33.55;26.58
21109;BME280;10712;52.944;9.098;2022-07-29T12:45:56;101540.34;;;33.44;26.75
21109;BME280;10712;52.944;9.098;2022-07-29T12:48:44;101539.44;;;33.50;26.50
21109;BME280;10712;52.944;9.098;2022-07-29T12:51:11;101541.22;;;33.38;26.74
21109;BME280;10712;52.944;9.098;2022-07-29T12:53:39;101533.28;;;33.48;26.63
21109;BME280;10712;52.944;9.098;2022-07-29T12:56:06;101541.78;;;33.53;26.76
21109;BME280;10712;52.944;9.098;2022-07-29T12:58:41;101537.50;;;33.57;26.67
21109;BME280;10712;52.944;9.098;2022-07-29T13:01:13;101534.72;;;33.57;26.45
21109;BME280;10712;52.944;9.098;2022-07-29T13:03:54;101533.66;;;33.58;26.72
21109;BME280;10712;52.944;9.098;2022-07-29T13:06:41;101522.88;;;33.50;25.86
21109;BME280;10712;52.944;9.098;2022-07-29T13:09:17;101524.47;;;33.65;26.02
21109;BME280;10712;52.944;9.098;2022-07-29T13:11:49;101520.47;;;33.60;26.02
21109;BME280;10712;52.944;9.098;2022-07-29T13:14:40;101529.84;;;33.59;25.98
21109;BME280;10712;52.944;9.098;2022-07-29T13:17:17;101524.41;;;33.78;25.96
21109;BME280;10712;52.944;9.098;2022-07-29T13:19:50;101517.56;;;33.87;25.51
21109;BME280;10712;52.944;9.098;2022-07-29T13:25:00;101520.19;;;33.69;25.40
21109;BME280;10712;52.944;9.098;2022-07-29T13:27:32;101515.56;;;33.62;25.59
21109;BME280;10712;52.944;9.098;2022-07-29T13:30:01;101510.91;;;33.56;25.95
21109;BME280;10712;52.944;9.098;2022-07-29T13:32:29;101508.78;;;33.58;26.11
21109;BME280;10712;52.944;9.098;2022-07-29T13:35:01;101512.13;;;33.74;25.95
21109;BME280;10712;52.944;9.098;2022-07-29T13:37:28;101511.97;;;33.55;26.05
21109;BME280;10712;52.944;9.098;2022-07-29T13:39:57;101512.19;;;33.54;25.86
21109;BME280;10712;52.944;9.098;2022-07-29T13:42:26;101512.69;;;33.44;25.72
21109;BME280;10712;52.944;9.098;2022-07-29T13:44:52;101512.25;;;33.47;26.04
21109;BME280;10712;52.944;9.098;2022-07-29T13:47:22;101507.38;;;33.43;26.59